Terminal Aerodrome Forecast
Issued by NWS

Home | Current Version | Previous Version | Text Only | Print | Product List | Glossary On
Versions: 1 2 3 4 5 6 7 8 9 10 11 12 13 14 15 16 17 18 19 20 21 22 23
000
FTUS43 KICT 250800 AAA
TAFHUT
TAF AMD
KHUT 250802Z 2508/2606 00000KT 4SM BR SKC
      TEMPO 2508/2511 1/2SM FG
     FM251100 00000KT 1SM BR SKC
      TEMPO 2511/2514 4SM
     FM251400 05005KT P6SM SKC
     FM251700 12007KT P6SM SKC=

USA.gov is the U.S. government's official web portal to all federal, state and local government web resources and services.